This is the latest recevied weather packets stored in our database for station/object EA1PVC-10. If no packets are shown the sender has not sent any weather packets the latest 10 day(s).
| Time | Temp. | Humidity | Pressure | Rain* | Wind** | Luminosity | Snow |
|---|---|---|---|---|---|---|---|
| 1777861817 | 5° C | 95% | 913 hPa | - | - | - | - |
| 1777839277 | 11.11° C | 100% | 919.9 hPa | - | - | - | - |
| 1777838377 | 11.11° C | 100% | 919.8 hPa | - | - | - | - |
| 1777837477 | 11.67° C | 100% | 919.6 hPa | - | - | - | - |
| 1777836577 | 11.11° C | 100% | 919.7 hPa | - | - | - | - |
| 1777835677 | 11.67° C | 100% | 919.4 hPa | - | - | - | - |
| 1777834777 | 11.11° C | 100% | 919.4 hPa | - | - | - | - |
| 1777833876 | 11.11° C | 100% | 919.3 hPa | - | - | - | - |
| 1777832976 | 13.33° C | 80% | 919.2 hPa | - | - | - | - |
| 1777832076 | 15° C | 61% | 919.2 hPa | - | - | - | - |
| 1777831176 | 16.67° C | 50% | 919.1 hPa | - | - | - | - |
| 1777830276 | 17.78° C | 48% | 919 hPa | - | - | - | - |
| 1777829376 | 22.78° C | 31% | 913.1 hPa | - | - | - | - |
| 1777828465 | 17.22° C | 50% | 918.6 hPa | - | - | - | - |
| 1777827565 | 17.22° C | 50% | 918.5 hPa | - | - | - | - |
| 1777826665 | 19.44° C | 37% | 918.3 hPa | - | - | - | - |
| 1777825765 | 21.67° C | 33% | 918.2 hPa | - | - | - | - |
| 1777823964 | 30.56° C | 22% | 918.4 hPa | - | - | - | - |
| 1777823064 | 27.78° C | 26% | 918.5 hPa | - | - | - | - |
| 1777822164 | 23.89° C | 32% | 918.5 hPa | - | - | - | - |
| 1777821264 | 23.89° C | 31% | 918.6 hPa | - | - | - | - |
| 1777820364 | 22.78° C | 33% | 918.7 hPa | - | - | - | - |
| 1777819464 | 20.56° C | 35% | 918.8 hPa | - | - | - | - |
| 1777818564 | 17.78° C | 34% | 912.2 hPa | - | - | - | - |
| 1777817653 | 22.22° C | 34% | 919 hPa | - | - | - | - |
* Rain since midnight (hover to see other rain measurements)
** Current wind speed in m/s (hover to see current wind gust speed)